sensor_id;sensor_type;location;lat;lon;timestamp;P1;durP1;ratioP1;P2;durP2;ratioP2
76262;SDS011;65080;50.908;6.916;2022-11-20T00:01:51;13.90;;;11.50;;
76262;SDS011;65080;50.908;6.916;2022-11-20T00:04:19;14.43;;;10.30;;
76262;SDS011;65080;50.908;6.916;2022-11-20T00:06:49;14.60;;;10.63;;
76262;SDS011;65080;50.908;6.916;2022-11-20T00:09:17;17.90;;;11.00;;
76262;SDS011;65080;50.908;6.916;2022-11-20T00:11:46;17.43;;;12.33;;
76262;SDS011;65080;50.908;6.916;2022-11-20T00:14:14;14.80;;;10.40;;
76262;SDS011;65080;50.908;6.916;2022-11-20T00:16:42;17.27;;;11.40;;
76262;SDS011;65080;50.908;6.916;2022-11-20T00:19:10;14.10;;;10.43;;
76262;SDS011;65080;50.908;6.916;2022-11-20T00:21:38;16.60;;;12.00;;
76262;SDS011;65080;50.908;6.916;2022-11-20T00:24:08;14.87;;;10.40;;
76262;SDS011;65080;50.908;6.916;2022-11-20T00:26:38;15.73;;;10.90;;
76262;SDS011;65080;50.908;6.916;2022-11-20T00:29:08;14.17;;;10.30;;
76262;SDS011;65080;50.908;6.916;2022-11-20T00:31:36;15.30;;;11.63;;
76262;SDS011;65080;50.908;6.916;2022-11-20T00:34:05;16.83;;;10.63;;
76262;SDS011;65080;50.908;6.916;2022-11-20T00:36:33;15.03;;;10.60;;
76262;SDS011;65080;50.908;6.916;2022-11-20T00:39:02;17.23;;;10.90;;
76262;SDS011;65080;50.908;6.916;2022-11-20T00:41:32;13.90;;;10.10;;
76262;SDS011;65080;50.908;6.916;2022-11-20T00:44:00;15.77;;;10.57;;
76262;SDS011;65080;50.908;6.916;2022-11-20T00:46:28;15.53;;;10.87;;
76262;SDS011;65080;50.908;6.916;2022-11-20T00:48:57;12.57;;;9.90;;
76262;SDS011;65080;50.908;6.916;2022-11-20T00:51:25;17.73;;;11.80;;
76262;SDS011;65080;50.908;6.916;2022-11-20T00:53:54;14.60;;;9.97;;
76262;SDS011;65080;50.908;6.916;2022-11-20T00:56:24;13.00;;;9.53;;
76262;SDS011;65080;50.908;6.916;2022-11-20T00:58:53;14.83;;;10.53;;
76262;SDS011;65080;50.908;6.916;2022-11-20T01:01:22;14.93;;;10.30;;
76262;SDS011;65080;50.908;6.916;2022-11-20T01:03:52;13.27;;;10.50;;
76262;SDS011;65080;50.908;6.916;2022-11-20T01:06:23;15.27;;;10.50;;
76262;SDS011;65080;50.908;6.916;2022-11-20T01:08:52;13.83;;;9.90;;
76262;SDS011;65080;50.908;6.916;2022-11-20T01:11:23;13.20;;;9.87;;
76262;SDS011;65080;50.908;6.916;2022-11-20T01:13:54;14.53;;;10.67;;
76262;SDS011;65080;50.908;6.916;2022-11-20T01:16:23;13.77;;;9.90;;
76262;SDS011;65080;50.908;6.916;2022-11-20T01:18:54;16.00;;;11.03;;
76262;SDS011;65080;50.908;6.916;2022-11-20T01:21:24;13.20;;;9.77;;
76262;SDS011;65080;50.908;6.916;2022-11-20T01:23:54;15.17;;;11.10;;
76262;SDS011;65080;50.908;6.916;2022-11-20T01:26:23;16.00;;;10.73;;
76262;SDS011;65080;50.908;6.916;2022-11-20T01:28:54;13.80;;;10.37;;
76262;SDS011;65080;50.908;6.916;2022-11-20T01:31:24;13.73;;;10.60;;
76262;SDS011;65080;50.908;6.916;2022-11-20T01:33:54;14.97;;;9.70;;
76262;SDS011;65080;50.908;6.916;2022-11-20T01:36:23;14.47;;;11.57;;
76262;SDS011;65080;50.908;6.916;2022-11-20T01:38:53;15.80;;;10.80;;
76262;SDS011;65080;50.908;6.916;2022-11-20T01:41:22;16.97;;;11.60;;
76262;SDS011;65080;50.908;6.916;2022-11-20T01:44:19;15.10;;;10.73;;
76262;SDS011;65080;50.908;6.916;2022-11-20T01:46:51;14.20;;;10.80;;
76262;SDS011;65080;50.908;6.916;2022-11-20T01:49:24;14.93;;;10.90;;
76262;SDS011;65080;50.908;6.916;2022-11-20T01:51:58;13.77;;;10.10;;
76262;SDS011;65080;50.908;6.916;2022-11-20T01:54:30;14.87;;;10.30;;
76262;SDS011;65080;50.908;6.916;2022-11-20T01:57:03;14.13;;;10.50;;
76262;SDS011;65080;50.908;6.916;2022-11-20T01:59:35;16.30;;;11.70;;
76262;SDS011;65080;50.908;6.916;2022-11-20T02:02:08;16.67;;;11.27;;
76262;SDS011;65080;50.908;6.916;2022-11-20T02:04:37;13.67;;;9.77;;
76262;SDS011;65080;50.908;6.916;2022-11-20T02:07:05;15.63;;;10.57;;
76262;SDS011;65080;50.908;6.916;2022-11-20T02:09:33;14.30;;;9.97;;
76262;SDS011;65080;50.908;6.916;2022-11-20T02:12:01;13.03;;;9.83;;
76262;SDS011;65080;50.908;6.916;2022-11-20T02:14:31;13.27;;;10.30;;
76262;SDS011;65080;50.908;6.916;2022-11-20T02:16:59;14.27;;;10.97;;
76262;SDS011;65080;50.908;6.916;2022-11-20T02:19:28;14.30;;;10.40;;
76262;SDS011;65080;50.908;6.916;2022-11-20T02:22:00;15.10;;;9.93;;
76262;SDS011;65080;50.908;6.916;2022-11-20T02:24:34;16.83;;;9.90;;
76262;SDS011;65080;50.908;6.916;2022-11-20T02:27:03;14.93;;;10.80;;
76262;SDS011;65080;50.908;6.916;2022-11-20T02:29:36;17.10;;;11.10;;
76262;SDS011;65080;50.908;6.916;2022-11-20T02:32:16;19.27;;;11.10;;
76262;SDS011;65080;50.908;6.916;2022-11-20T02:34:46;17.40;;;12.43;;
76262;SDS011;65080;50.908;6.916;2022-11-20T02:37:14;15.13;;;11.00;;
76262;SDS011;65080;50.908;6.916;2022-11-20T02:39:44;14.23;;;10.17;;
76262;SDS011;65080;50.908;6.916;2022-11-20T02:42:15;15.03;;;11.33;;
76262;SDS011;65080;50.908;6.916;2022-11-20T02:44:43;14.00;;;10.60;;
76262;SDS011;65080;50.908;6.916;2022-11-20T02:47:11;14.90;;;11.00;;
76262;SDS011;65080;50.908;6.916;2022-11-20T02:49:39;16.03;;;10.67;;
76262;SDS011;65080;50.908;6.916;2022-11-20T02:52:07;14.30;;;10.30;;
76262;SDS011;65080;50.908;6.916;2022-11-20T02:54:35;13.60;;;10.00;;
76262;SDS011;65080;50.908;6.916;2022-11-20T02:57:05;15.90;;;9.93;;
76262;SDS011;65080;50.908;6.916;2022-11-20T02:59:33;14.40;;;10.20;;
76262;SDS011;65080;50.908;6.916;2022-11-20T03:02:01;13.10;;;10.43;;
76262;SDS011;65080;50.908;6.916;2022-11-20T03:04:30;15.47;;;10.80;;
76262;SDS011;65080;50.908;6.916;2022-11-20T03:06:58;13.43;;;10.90;;
76262;SDS011;65080;50.908;6.916;2022-11-20T03:09:26;16.13;;;11.57;;
76262;SDS011;65080;50.908;6.916;2022-11-20T03:11:54;13.30;;;9.90;;
76262;SDS011;65080;50.908;6.916;2022-11-20T03:14:24;14.30;;;10.13;;
76262;SDS011;65080;50.908;6.916;2022-11-20T03:16:52;15.07;;;10.83;;
76262;SDS011;65080;50.908;6.916;2022-11-20T03:19:20;13.20;;;9.47;;
76262;SDS011;65080;50.908;6.916;2022-11-20T03:21:49;15.43;;;9.60;;
76262;SDS011;65080;50.908;6.916;2022-11-20T03:24:17;13.20;;;10.03;;
76262;SDS011;65080;50.908;6.916;2022-11-20T03:26:45;14.23;;;10.00;;
76262;SDS011;65080;50.908;6.916;2022-11-20T03:29:14;15.97;;;10.37;;
76262;SDS011;65080;50.908;6.916;2022-11-20T03:31:43;16.00;;;11.33;;
76262;SDS011;65080;50.908;6.916;2022-11-20T03:34:11;13.40;;;9.57;;
76262;SDS011;65080;50.908;6.916;2022-11-20T03:36:40;15.53;;;10.30;;
76262;SDS011;65080;50.908;6.916;2022-11-20T03:39:09;14.60;;;10.33;;
76262;SDS011;65080;50.908;6.916;2022-11-20T03:41:38;15.77;;;10.30;;
76262;SDS011;65080;50.908;6.916;2022-11-20T03:44:09;14.03;;;10.27;;
76262;SDS011;65080;50.908;6.916;2022-11-20T03:46:38;15.73;;;11.50;;
76262;SDS011;65080;50.908;6.916;2022-11-20T03:49:07;14.33;;;10.70;;
76262;SDS011;65080;50.908;6.916;2022-11-20T03:51:36;14.20;;;10.53;;
76262;SDS011;65080;50.908;6.916;2022-11-20T03:54:05;13.97;;;10.27;;
76262;SDS011;65080;50.908;6.916;2022-11-20T03:56:35;16.53;;;11.10;;
76262;SDS011;65080;50.908;6.916;2022-11-20T03:59:04;19.10;;;11.40;;
76262;SDS011;65080;50.908;6.916;2022-11-20T04:01:33;16.47;;;10.70;;
76262;SDS011;65080;50.908;6.916;2022-11-20T04:04:03;15.37;;;11.20;;
76262;SDS011;65080;50.908;6.916;2022-11-20T04:06:35;13.70;;;10.10;;
76262;SDS011;65080;50.908;6.916;2022-11-20T04:09:05;16.07;;;10.77;;
76262;SDS011;65080;50.908;6.916;2022-11-20T04:11:34;16.17;;;11.60;;
76262;SDS011;65080;50.908;6.916;2022-11-20T04:14:04;17.60;;;12.43;;
76262;SDS011;65080;50.908;6.916;2022-11-20T04:16:34;17.97;;;12.10;;
76262;SDS011;65080;50.908;6.916;2022-11-20T04:19:05;17.20;;;11.77;;
76262;SDS011;65080;50.908;6.916;2022-11-20T04:21:38;19.07;;;13.17;;
76262;SDS011;65080;50.908;6.916;2022-11-20T04:24:06;18.97;;;12.70;;
76262;SDS011;65080;50.908;6.916;2022-11-20T04:26:36;16.40;;;11.93;;
76262;SDS011;65080;50.908;6.916;2022-11-20T04:29:05;19.40;;;13.47;;
76262;SDS011;65080;50.908;6.916;2022-11-20T04:31:34;19.67;;;13.53;;
76262;SDS011;65080;50.908;6.916;2022-11-20T04:34:02;17.47;;;11.63;;
76262;SDS011;65080;50.908;6.916;2022-11-20T04:36:32;17.00;;;12.50;;
76262;SDS011;65080;50.908;6.916;2022-11-20T04:39:02;20.27;;;13.33;;
76262;SDS011;65080;50.908;6.916;2022-11-20T04:41:32;20.57;;;11.90;;
76262;SDS011;65080;50.908;6.916;2022-11-20T04:44:02;17.97;;;12.07;;
76262;SDS011;65080;50.908;6.916;2022-11-20T04:46:32;19.53;;;13.40;;
76262;SDS011;65080;50.908;6.916;2022-11-20T04:49:02;20.00;;;12.93;;
76262;SDS011;65080;50.908;6.916;2022-11-20T04:51:30;23.43;;;12.93;;
76262;SDS011;65080;50.908;6.916;2022-11-20T04:53:59;17.70;;;11.80;;
76262;SDS011;65080;50.908;6.916;2022-11-20T04:56:29;20.40;;;12.20;;
76262;SDS011;65080;50.908;6.916;2022-11-20T04:58:59;18.90;;;12.67;;
76262;SDS011;65080;50.908;6.916;2022-11-20T05:01:29;19.33;;;12.53;;
76262;SDS011;65080;50.908;6.916;2022-11-20T05:03:59;20.00;;;13.03;;
76262;SDS011;65080;50.908;6.916;2022-11-20T05:06:27;17.67;;;12.57;;
76262;SDS011;65080;50.908;6.916;2022-11-20T05:08:55;16.23;;;11.97;;
76262;SDS011;65080;50.908;6.916;2022-11-20T05:11:23;16.60;;;11.70;;
76262;SDS011;65080;50.908;6.916;2022-11-20T05:13:53;18.37;;;12.50;;
76262;SDS011;65080;50.908;6.916;2022-11-20T05:16:22;16.87;;;11.40;;
76262;SDS011;65080;50.908;6.916;2022-11-20T05:18:52;21.60;;;12.67;;
76262;SDS011;65080;50.908;6.916;2022-11-20T05:21:21;23.17;;;13.40;;
76262;SDS011;65080;50.908;6.916;2022-11-20T05:23:50;17.70;;;13.23;;
76262;SDS011;65080;50.908;6.916;2022-11-20T05:26:18;19.40;;;12.10;;
76262;SDS011;65080;50.908;6.916;2022-11-20T05:28:48;20.17;;;13.80;;
76262;SDS011;65080;50.908;6.916;2022-11-20T05:31:19;24.33;;;14.20;;
76262;SDS011;65080;50.908;6.916;2022-11-20T05:33:53;22.30;;;14.57;;
76262;SDS011;65080;50.908;6.916;2022-11-20T05:36:23;17.87;;;12.13;;
76262;SDS011;65080;50.908;6.916;2022-11-20T05:38:51;19.80;;;12.97;;
76262;SDS011;65080;50.908;6.916;2022-11-20T05:41:26;20.20;;;12.10;;
76262;SDS011;65080;50.908;6.916;2022-11-20T05:43:55;21.60;;;13.33;;
76262;SDS011;65080;50.908;6.916;2022-11-20T05:46:25;21.37;;;13.83;;
76262;SDS011;65080;50.908;6.916;2022-11-20T05:48:55;22.80;;;14.63;;
76262;SDS011;65080;50.908;6.916;2022-11-20T05:51:24;18.03;;;11.93;;
76262;SDS011;65080;50.908;6.916;2022-11-20T05:53:53;19.77;;;13.40;;
76262;SDS011;65080;50.908;6.916;2022-11-20T05:56:21;21.17;;;13.00;;
76262;SDS011;65080;50.908;6.916;2022-11-20T05:58:49;20.93;;;13.40;;
76262;SDS011;65080;50.908;6.916;2022-11-20T06:01:18;22.30;;;13.40;;
76262;SDS011;65080;50.908;6.916;2022-11-20T06:03:49;18.77;;;12.80;;
76262;SDS011;65080;50.908;6.916;2022-11-20T06:06:19;20.43;;;13.10;;
76262;SDS011;65080;50.908;6.916;2022-11-20T06:08:47;20.60;;;14.10;;
76262;SDS011;65080;50.908;6.916;2022-11-20T06:11:16;18.43;;;13.20;;
76262;SDS011;65080;50.908;6.916;2022-11-20T06:13:44;20.63;;;13.93;;
76262;SDS011;65080;50.908;6.916;2022-11-20T06:16:14;21.77;;;14.57;;
76262;SDS011;65080;50.908;6.916;2022-11-20T06:18:43;21.80;;;14.50;;
76262;SDS011;65080;50.908;6.916;2022-11-20T06:21:14;19.37;;;12.60;;
76262;SDS011;65080;50.908;6.916;2022-11-20T06:23:43;17.90;;;12.80;;
76262;SDS011;65080;50.908;6.916;2022-11-20T06:26:12;21.13;;;13.97;;
76262;SDS011;65080;50.908;6.916;2022-11-20T06:28:41;23.27;;;14.43;;
76262;SDS011;65080;50.908;6.916;2022-11-20T06:31:10;20.77;;;13.73;;
76262;SDS011;65080;50.908;6.916;2022-11-20T06:33:39;19.97;;;13.57;;
76262;SDS011;65080;50.908;6.916;2022-11-20T06:36:09;21.30;;;14.63;;
76262;SDS011;65080;50.908;6.916;2022-11-20T06:38:40;23.40;;;14.33;;
76262;SDS011;65080;50.908;6.916;2022-11-20T06:41:09;20.30;;;13.53;;
76262;SDS011;65080;50.908;6.916;2022-11-20T06:43:39;18.63;;;13.50;;
76262;SDS011;65080;50.908;6.916;2022-11-20T06:46:08;19.57;;;13.70;;
76262;SDS011;65080;50.908;6.916;2022-11-20T06:48:37;24.47;;;16.27;;
76262;SDS011;65080;50.908;6.916;2022-11-20T06:51:06;22.37;;;14.47;;
76262;SDS011;65080;50.908;6.916;2022-11-20T06:53:35;20.63;;;13.37;;
76262;SDS011;65080;50.908;6.916;2022-11-20T06:56:05;22.10;;;13.83;;
76262;SDS011;65080;50.908;6.916;2022-11-20T06:58:34;19.90;;;13.20;;
76262;SDS011;65080;50.908;6.916;2022-11-20T07:01:04;19.27;;;13.23;;
76262;SDS011;65080;50.908;6.916;2022-11-20T07:03:33;21.83;;;14.27;;
76262;SDS011;65080;50.908;6.916;2022-11-20T07:06:02;22.43;;;14.67;;
76262;SDS011;65080;50.908;6.916;2022-11-20T07:08:31;23.70;;;13.90;;
76262;SDS011;65080;50.908;6.916;2022-11-20T07:11:00;24.50;;;14.80;;
76262;SDS011;65080;50.908;6.916;2022-11-20T07:13:30;18.60;;;13.47;;
76262;SDS011;65080;50.908;6.916;2022-11-20T07:15:59;25.70;;;15.13;;
76262;SDS011;65080;50.908;6.916;2022-11-20T07:18:28;21.87;;;14.20;;
76262;SDS011;65080;50.908;6.916;2022-11-20T07:20:59;20.40;;;12.90;;
76262;SDS011;65080;50.908;6.916;2022-11-20T07:23:28;20.03;;;13.27;;
76262;SDS011;65080;50.908;6.916;2022-11-20T07:25:56;17.87;;;13.27;;
76262;SDS011;65080;50.908;6.916;2022-11-20T07:28:24;18.27;;;12.80;;
76262;SDS011;65080;50.908;6.916;2022-11-20T07:30:53;20.90;;;13.97;;
76262;SDS011;65080;50.908;6.916;2022-11-20T07:33:21;19.20;;;12.80;;
76262;SDS011;65080;50.908;6.916;2022-11-20T07:35:50;18.43;;;12.97;;
76262;SDS011;65080;50.908;6.916;2022-11-20T07:38:18;18.80;;;13.13;;
76262;SDS011;65080;50.908;6.916;2022-11-20T07:40:46;20.33;;;13.13;;
76262;SDS011;65080;50.908;6.916;2022-11-20T07:43:15;21.30;;;14.10;;
76262;SDS011;65080;50.908;6.916;2022-11-20T07:45:43;22.67;;;13.37;;
76262;SDS011;65080;50.908;6.916;2022-11-20T07:48:12;17.67;;;12.33;;
76262;SDS011;65080;50.908;6.916;2022-11-20T07:50:41;19.33;;;13.00;;
76262;SDS011;65080;50.908;6.916;2022-11-20T07:53:09;19.37;;;13.43;;
76262;SDS011;65080;50.908;6.916;2022-11-20T07:55:38;22.83;;;13.70;;
76262;SDS011;65080;50.908;6.916;2022-11-20T07:58:07;19.70;;;13.27;;
76262;SDS011;65080;50.908;6.916;2022-11-20T08:00:35;17.67;;;12.00;;
76262;SDS011;65080;50.908;6.916;2022-11-20T08:03:03;19.67;;;13.03;;
76262;SDS011;65080;50.908;6.916;2022-11-20T08:05:33;21.23;;;13.43;;
76262;SDS011;65080;50.908;6.916;2022-11-20T08:08:01;19.60;;;13.17;;
76262;SDS011;65080;50.908;6.916;2022-11-20T08:10:29;20.90;;;14.20;;
76262;SDS011;65080;50.908;6.916;2022-11-20T08:12:57;21.17;;;14.47;;
76262;SDS011;65080;50.908;6.916;2022-11-20T08:15:47;24.60;;;14.40;;
76262;SDS011;65080;50.908;6.916;2022-11-20T08:18:16;20.43;;;13.67;;
76262;SDS011;65080;50.908;6.916;2022-11-20T08:21:02;19.97;;;13.90;;
76262;SDS011;65080;50.908;6.916;2022-11-20T08:23:31;24.13;;;15.53;;
76262;SDS011;65080;50.908;6.916;2022-11-20T08:25:59;19.67;;;13.30;;
76262;SDS011;65080;50.908;6.916;2022-11-20T08:28:27;20.93;;;13.93;;
76262;SDS011;65080;50.908;6.916;2022-11-20T08:30:57;22.77;;;15.20;;
76262;SDS011;65080;50.908;6.916;2022-11-20T08:33:26;22.83;;;14.93;;
76262;SDS011;65080;50.908;6.916;2022-11-20T08:35:57;25.20;;;16.13;;
76262;SDS011;65080;50.908;6.916;2022-11-20T08:38:28;25.33;;;14.93;;
76262;SDS011;65080;50.908;6.916;2022-11-20T08:40:57;23.50;;;15.33;;
76262;SDS011;65080;50.908;6.916;2022-11-20T08:43:43;24.93;;;16.17;;
76262;SDS011;65080;50.908;6.916;2022-11-20T08:46:11;26.27;;;17.13;;
76262;SDS011;65080;50.908;6.916;2022-11-20T08:48:40;23.03;;;15.50;;
76262;SDS011;65080;50.908;6.916;2022-11-20T08:51:08;24.80;;;15.57;;
76262;SDS011;65080;50.908;6.916;2022-11-20T08:53:38;25.53;;;15.60;;
76262;SDS011;65080;50.908;6.916;2022-11-20T08:56:06;21.87;;;14.77;;
76262;SDS011;65080;50.908;6.916;2022-11-20T08:58:36;24.37;;;15.93;;
76262;SDS011;65080;50.908;6.916;2022-11-20T09:01:24;25.50;;;16.50;;
76262;SDS011;65080;50.908;6.916;2022-11-20T09:03:54;22.53;;;14.53;;
76262;SDS011;65080;50.908;6.916;2022-11-20T09:06:23;24.87;;;15.43;;
76262;SDS011;65080;50.908;6.916;2022-11-20T09:08:52;24.50;;;15.77;;
76262;SDS011;65080;50.908;6.916;2022-11-20T09:11:21;22.67;;;14.23;;
76262;SDS011;65080;50.908;6.916;2022-11-20T09:13:49;23.90;;;15.33;;
76262;SDS011;65080;50.908;6.916;2022-11-20T09:16:18;20.20;;;13.70;;
76262;SDS011;65080;50.908;6.916;2022-11-20T09:18:46;23.07;;;14.90;;
76262;SDS011;65080;50.908;6.916;2022-11-20T09:21:37;20.80;;;13.03;;
76262;SDS011;65080;50.908;6.916;2022-11-20T09:24:06;21.93;;;13.20;;
76262;SDS011;65080;50.908;6.916;2022-11-20T09:26:34;23.37;;;14.67;;
76262;SDS011;65080;50.908;6.916;2022-11-20T09:29:02;19.20;;;12.50;;
76262;SDS011;65080;50.908;6.916;2022-11-20T09:31:31;17.20;;;12.33;;
76262;SDS011;65080;50.908;6.916;2022-11-20T09:33:59;20.77;;;13.30;;
76262;SDS011;65080;50.908;6.916;2022-11-20T09:36:27;24.33;;;15.70;;
76262;SDS011;65080;50.908;6.916;2022-11-20T09:38:55;22.77;;;14.30;;
76262;SDS011;65080;50.908;6.916;2022-11-20T09:41:29;24.43;;;14.83;;
76262;SDS011;65080;50.908;6.916;2022-11-20T09:44:19;22.10;;;13.23;;
76262;SDS011;65080;50.908;6.916;2022-11-20T09:47:01;20.37;;;13.80;;
76262;SDS011;65080;50.908;6.916;2022-11-20T09:49:36;24.67;;;14.43;;
76262;SDS011;65080;50.908;6.916;2022-11-20T09:52:21;21.77;;;14.27;;
76262;SDS011;65080;50.908;6.916;2022-11-20T09:54:57;24.53;;;15.30;;
76262;SDS011;65080;50.908;6.916;2022-11-20T09:57:32;22.77;;;15.00;;
76262;SDS011;65080;50.908;6.916;2022-11-20T10:00:04;21.57;;;14.83;;
76262;SDS011;65080;50.908;6.916;2022-11-20T10:02:40;23.07;;;14.47;;
76262;SDS011;65080;50.908;6.916;2022-11-20T10:05:15;26.47;;;16.73;;
76262;SDS011;65080;50.908;6.916;2022-11-20T10:07:47;21.37;;;14.03;;
76262;SDS011;65080;50.908;6.916;2022-11-20T10:10:26;21.07;;;13.60;;
76262;SDS011;65080;50.908;6.916;2022-11-20T10:13:05;23.47;;;16.13;;
76262;SDS011;65080;50.908;6.916;2022-11-20T10:15:46;22.27;;;15.00;;
76262;SDS011;65080;50.908;6.916;2022-11-20T10:18:28;24.23;;;15.67;;
76262;SDS011;65080;50.908;6.916;2022-11-20T10:21:07;28.70;;;16.20;;
76262;SDS011;65080;50.908;6.916;2022-11-20T10:26:46;30.93;;;15.10;;
76262;SDS011;65080;50.908;6.916;2022-11-20T10:29:25;25.13;;;16.63;;
76262;SDS011;65080;50.908;6.916;2022-11-20T10:32:00;25.30;;;15.47;;
76262;SDS011;65080;50.908;6.916;2022-11-20T10:34:31;24.40;;;15.90;;
76262;SDS011;65080;50.908;6.916;2022-11-20T10:37:08;25.53;;;16.27;;
76262;SDS011;65080;50.908;6.916;2022-11-20T10:39:41;30.90;;;15.87;;
76262;SDS011;65080;50.908;6.916;2022-11-20T10:42:16;21.80;;;14.37;;
76262;SDS011;65080;50.908;6.916;2022-11-20T10:44:51;24.50;;;14.77;;
76262;SDS011;65080;50.908;6.916;2022-11-20T10:47:32;24.50;;;15.57;;
76262;SDS011;65080;50.908;6.916;2022-11-20T10:50:01;23.67;;;15.90;;
76262;SDS011;65080;50.908;6.916;2022-11-20T10:52:32;25.77;;;15.60;;
76262;SDS011;65080;50.908;6.916;2022-11-20T10:55:11;23.33;;;15.00;;
76262;SDS011;65080;50.908;6.916;2022-11-20T10:57:53;22.87;;;15.20;;
76262;SDS011;65080;50.908;6.916;2022-11-20T11:00:31;23.37;;;15.00;;
76262;SDS011;65080;50.908;6.916;2022-11-20T11:02:59;22.53;;;13.73;;
76262;SDS011;65080;50.908;6.916;2022-11-20T11:05:33;24.83;;;16.77;;
76262;SDS011;65080;50.908;6.916;2022-11-20T11:08:09;21.80;;;14.43;;
76262;SDS011;65080;50.908;6.916;2022-11-20T11:10:42;23.13;;;14.97;;
76262;SDS011;65080;50.908;6.916;2022-11-20T11:13:21;23.60;;;15.77;;
76262;SDS011;65080;50.908;6.916;2022-11-20T11:15:52;20.90;;;14.33;;
76262;SDS011;65080;50.908;6.916;2022-11-20T11:18:25;20.70;;;13.50;;
76262;SDS011;65080;50.908;6.916;2022-11-20T11:20:54;20.07;;;13.50;;
76262;SDS011;65080;50.908;6.916;2022-11-20T11:23:28;25.50;;;15.87;;
76262;SDS011;65080;50.908;6.916;2022-11-20T11:26:01;26.87;;;16.90;;
76262;SDS011;65080;50.908;6.916;2022-11-20T11:28:30;23.33;;;16.17;;
76262;SDS011;65080;50.908;6.916;2022-11-20T11:31:00;22.90;;;16.80;;
76262;SDS011;65080;50.908;6.916;2022-11-20T11:33:28;22.67;;;15.63;;
76262;SDS011;65080;50.908;6.916;2022-11-20T11:36:00;26.43;;;16.03;;
76262;SDS011;65080;50.908;6.916;2022-11-20T11:38:30;24.40;;;15.23;;
76262;SDS011;65080;50.908;6.916;2022-11-20T11:41:03;23.43;;;15.23;;
76262;SDS011;65080;50.908;6.916;2022-11-20T11:43:33;24.83;;;15.87;;
76262;SDS011;65080;50.908;6.916;2022-11-20T11:46:26;27.33;;;16.50;;
76262;SDS011;65080;50.908;6.916;2022-11-20T11:48:57;23.17;;;15.63;;
76262;SDS011;65080;50.908;6.916;2022-11-20T11:51:28;24.57;;;16.43;;
76262;SDS011;65080;50.908;6.916;2022-11-20T11:54:03;24.00;;;15.63;;
76262;SDS011;65080;50.908;6.916;2022-11-20T11:56:40;23.37;;;15.10;;
76262;SDS011;65080;50.908;6.916;2022-11-20T11:59:09;25.80;;;15.63;;
76262;SDS011;65080;50.908;6.916;2022-11-20T12:01:44;24.57;;;15.83;;
76262;SDS011;65080;50.908;6.916;2022-11-20T12:04:19;25.10;;;16.17;;
76262;SDS011;65080;50.908;6.916;2022-11-20T12:06:57;23.10;;;16.30;;
76262;SDS011;65080;50.908;6.916;2022-11-20T12:09:52;26.00;;;16.57;;
76262;SDS011;65080;50.908;6.916;2022-11-20T12:12:27;22.37;;;15.73;;
76262;SDS011;65080;50.908;6.916;2022-11-20T12:15:01;21.83;;;14.77;;
76262;SDS011;65080;50.908;6.916;2022-11-20T12:17:33;25.37;;;16.00;;
76262;SDS011;65080;50.908;6.916;2022-11-20T12:20:01;24.17;;;15.03;;
76262;SDS011;65080;50.908;6.916;2022-11-20T12:22:31;23.80;;;14.60;;
76262;SDS011;65080;50.908;6.916;2022-11-20T12:25:07;20.00;;;14.17;;
76262;SDS011;65080;50.908;6.916;2022-11-20T12:27:49;21.00;;;14.50;;
76262;SDS011;65080;50.908;6.916;2022-11-20T12:30:27;25.60;;;16.10;;
76262;SDS011;65080;50.908;6.916;2022-11-20T12:33:03;27.00;;;14.20;;
76262;SDS011;65080;50.908;6.916;2022-11-20T12:35:53;22.40;;;14.10;;
76262;SDS011;65080;50.908;6.916;2022-11-20T12:41:40;20.77;;;14.13;;
76262;SDS011;65080;50.908;6.916;2022-11-20T12:44:38;25.40;;;15.80;;
76262;SDS011;65080;50.908;6.916;2022-11-20T12:47:43;22.70;;;15.60;;
76262;SDS011;65080;50.908;6.916;2022-11-20T12:50:32;25.50;;;16.13;;
76262;SDS011;65080;50.908;6.916;2022-11-20T12:53:29;19.60;;;13.43;;
76262;SDS011;65080;50.908;6.916;2022-11-20T12:56:06;22.50;;;15.10;;
76262;SDS011;65080;50.908;6.916;2022-11-20T12:58:45;19.93;;;13.30;;
76262;SDS011;65080;50.908;6.916;2022-11-20T13:01:24;21.83;;;15.03;;
76262;SDS011;65080;50.908;6.916;2022-11-20T13:04:15;27.07;;;15.67;;
76262;SDS011;65080;50.908;6.916;2022-11-20T13:06:53;20.70;;;14.37;;
76262;SDS011;65080;50.908;6.916;2022-11-20T13:09:22;33.90;;;20.67;;
76262;SDS011;65080;50.908;6.916;2022-11-20T13:11:53;20.20;;;13.27;;
76262;SDS011;65080;50.908;6.916;2022-11-20T13:14:31;23.93;;;14.03;;
76262;SDS011;65080;50.908;6.916;2022-11-20T13:17:05;23.80;;;15.73;;
76262;SDS011;65080;50.908;6.916;2022-11-20T13:19:37;21.43;;;14.27;;
76262;SDS011;65080;50.908;6.916;2022-11-20T13:22:08;20.57;;;13.90;;
76262;SDS011;65080;50.908;6.916;2022-11-20T13:24:36;27.60;;;17.20;;
76262;SDS011;65080;50.908;6.916;2022-11-20T13:27:05;24.87;;;14.13;;
76262;SDS011;65080;50.908;6.916;2022-11-20T13:29:57;19.20;;;12.67;;
76262;SDS011;65080;50.908;6.916;2022-11-20T13:32:28;21.90;;;15.30;;
76262;SDS011;65080;50.908;6.916;2022-11-20T13:34:59;24.00;;;14.17;;
76262;SDS011;65080;50.908;6.916;2022-11-20T13:37:30;22.77;;;14.30;;
76262;SDS011;65080;50.908;6.916;2022-11-20T13:42:55;22.80;;;14.30;;
76262;SDS011;65080;50.908;6.916;2022-11-20T13:45:29;20.67;;;14.47;;
76262;SDS011;65080;50.908;6.916;2022-11-20T13:48:00;21.47;;;13.70;;
76262;SDS011;65080;50.908;6.916;2022-11-20T13:50:40;21.80;;;14.17;;
76262;SDS011;65080;50.908;6.916;2022-11-20T13:53:30;25.43;;;15.30;;
76262;SDS011;65080;50.908;6.916;2022-11-20T13:56:14;23.00;;;14.57;;
76262;SDS011;65080;50.908;6.916;2022-11-20T13:58:49;22.63;;;15.10;;
76262;SDS011;65080;50.908;6.916;2022-11-20T14:01:30;27.37;;;15.33;;
76262;SDS011;65080;50.908;6.916;2022-11-20T14:04:05;22.03;;;13.90;;
76262;SDS011;65080;50.908;6.916;2022-11-20T14:06:38;19.77;;;13.67;;
76262;SDS011;65080;50.908;6.916;2022-11-20T14:09:12;24.70;;;15.17;;
76262;SDS011;65080;50.908;6.916;2022-11-20T14:11:51;21.87;;;14.73;;
76262;SDS011;65080;50.908;6.916;2022-11-20T14:14:21;21.10;;;14.13;;
76262;SDS011;65080;50.908;6.916;2022-11-20T14:16:51;22.70;;;15.13;;
76262;SDS011;65080;50.908;6.916;2022-11-20T14:19:25;24.93;;;14.77;;
76262;SDS011;65080;50.908;6.916;2022-11-20T14:22:06;20.73;;;14.30;;
76262;SDS011;65080;50.908;6.916;2022-11-20T14:24:37;23.50;;;14.60;;
76262;SDS011;65080;50.908;6.916;2022-11-20T14:27:10;21.57;;;13.50;;
76262;SDS011;65080;50.908;6.916;2022-11-20T14:29:40;20.50;;;14.50;;
76262;SDS011;65080;50.908;6.916;2022-11-20T14:32:11;22.40;;;14.77;;
76262;SDS011;65080;50.908;6.916;2022-11-20T14:34:44;21.20;;;13.20;;
76262;SDS011;65080;50.908;6.916;2022-11-20T14:37:17;25.37;;;14.83;;
76262;SDS011;65080;50.908;6.916;2022-11-20T14:39:50;23.80;;;14.23;;
76262;SDS011;65080;50.908;6.916;2022-11-20T14:42:21;23.77;;;14.90;;
76262;SDS011;65080;50.908;6.916;2022-11-20T14:44:51;24.57;;;15.00;;
76262;SDS011;65080;50.908;6.916;2022-11-20T14:47:23;26.63;;;15.13;;
76262;SDS011;65080;50.908;6.916;2022-11-20T14:49:53;22.70;;;14.60;;
76262;SDS011;65080;50.908;6.916;2022-11-20T14:52:24;34.03;;;14.60;;
76262;SDS011;65080;50.908;6.916;2022-11-20T14:54:55;21.40;;;13.03;;
76262;SDS011;65080;50.908;6.916;2022-11-20T14:57:26;20.57;;;12.50;;